Time;durP1;ratioP1;P1;durP2;ratioP2;P2;SDS_P1;SDS_P2;PMS_P1;PMS_P2;Temp;Humidity;BMP_temperature;BMP_pressure;BME280_temperature;BME280_humidity;BME280_pressure;Samples;Min_cycle;Max_cycle;Signal;HPM_P1;HPM_P2
2024/04/19 00:00:29;;;;;;;1.50;1.30;;;;;;;10.66;100.00;99421.65;109671;1256;73441;-75
2024/04/19 00:02:56;;;;;;;2.60;1.40;;;;;;;10.64;100.00;99424.16;109678;1251;62344;-78
2024/04/19 00:05:24;;;;;;;1.00;0.90;;;;;;;10.62;100.00;99426.95;109675;1251;71378;-79
2024/04/19 00:07:51;;;;;;;0.70;0.70;;;;;;;10.61;100.00;99420.38;109626;1253;60385;-80
2024/04/19 00:10:19;;;;;;;0.80;0.80;;;;;;;10.61;100.00;99424.88;109668;1251;58926;-76
2024/04/19 00:12:46;;;;;;;1.80;1.30;;;;;;;10.62;100.00;99429.91;109668;1251;73689;-74
2024/04/19 00:15:14;;;;;;;1.40;1.20;;;;;;;10.60;100.00;99426.05;109651;1251;62752;-77
2024/04/19 00:17:41;;;;;;;1.20;1.20;;;;;;;10.56;100.00;99433.46;109635;1251;71389;-77
2024/04/19 00:20:28;;;;;;;1.50;1.40;;;;;;;10.54;100.00;99435.16;109653;1251;61103;-76
2024/04/19 00:23:07;;;;;;;1.40;1.30;;;;;;;10.53;100.00;99441.38;109660;1251;59024;-75
2024/04/19 00:25:35;;;;;;;1.60;1.50;;;;;;;10.53;100.00;99443.70;109604;1251;73441;-75
2024/04/19 00:28:03;;;;;;;1.60;1.40;;;;;;;10.52;100.00;99442.14;109634;1256;62423;-77
2024/04/19 00:30:31;;;;;;;2.60;1.90;;;;;;;10.51;100.00;99452.94;109666;1251;71182;-76
2024/04/19 00:32:59;;;;;;;3.20;1.90;;;;;;;10.50;100.00;99454.07;109628;1251;61715;-76
2024/04/19 00:35:40;;;;;;;1.70;1.60;;;;;;;10.48;100.00;99459.64;109690;1251;59942;-75
2024/04/19 00:38:07;;;;;;;2.20;2.00;;;;;;;10.46;100.00;99464.14;109606;1251;73212;-79
2024/04/19 00:40:35;;;;;;;3.40;2.30;;;;;;;10.43;100.00;99471.17;109677;1251;62410;-74
2024/04/19 00:43:03;;;;;;;3.10;1.60;;;;;;;10.42;100.00;99480.02;109464;1251;70765;-77
2024/04/19 00:45:37;;;;;;;4.30;1.80;;;;;;;10.40;100.00;99479.45;109636;1251;61739;-77
2024/04/19 00:48:11;;;;;;;2.30;2.10;;;;;;;10.39;100.00;99488.11;109633;1257;60046;-77
2024/04/19 00:50:56;;;;;;;5.40;2.00;;;;;;;10.38;100.00;99489.61;109626;1251;74701;-78
2024/04/19 00:53:27;;;;;;;4.60;2.40;;;;;;;10.38;100.00;99489.25;109605;1256;62468;-78
2024/04/19 00:55:59;;;;;;;2.90;2.60;;;;;;;10.39;100.00;99490.38;109671;1251;72626;-78
2024/04/19 00:58:27;;;;;;;3.40;2.90;;;;;;;10.40;100.00;99492.92;109628;1251;61880;-77
2024/04/19 01:00:55;;;;;;;3.60;3.30;;;;;;;10.38;100.00;99492.52;109607;1256;58889;-75
2024/04/19 01:03:23;;;;;;;3.40;2.80;;;;;;;10.37;100.00;99493.30;109603;1256;74649;-76
2024/04/19 01:05:51;;;;;;;2.90;2.70;;;;;;;10.38;100.00;99490.66;109652;1251;61979;-78
2024/04/19 01:08:25;;;;;;;4.20;3.10;;;;;;;10.37;100.00;99497.01;109633;1251;72679;-77
2024/04/19 01:10:52;;;;;;;3.50;3.10;;;;;;;10.36;100.00;99501.74;109596;1251;61226;-75
2024/04/19 01:13:20;;;;;;;2.70;2.50;;;;;;;10.38;100.00;99508.27;109554;1251;59174;-77
2024/04/19 01:15:50;;;;;;;7.10;6.40;;;;;;;10.39;100.00;99511.54;109515;1251;74603;-77
2024/04/19 01:18:19;;;;;;;3.50;2.80;;;;;;;10.40;100.00;99517.04;109644;1251;62969;-76
2024/04/19 01:20:47;;;;;;;2.10;2.00;;;;;;;10.40;100.00;99519.98;109648;1251;70704;-77
2024/04/19 01:23:14;;;;;;;2.20;2.10;;;;;;;10.39;100.00;99517.61;109625;1256;60452;-76
2024/04/19 01:25:42;;;;;;;2.90;2.60;;;;;;;10.39;100.00;99517.68;109710;1251;59671;-77
2024/04/19 01:28:10;;;;;;;3.30;2.90;;;;;;;10.37;100.00;99519.37;109351;1257;73162;-77
2024/04/19 01:30:42;;;;;;;2.80;2.50;;;;;;;10.36;100.00;99525.77;109636;1251;65403;-76
2024/04/19 01:33:10;;;;;;;4.00;3.20;;;;;;;10.35;100.00;99525.06;109575;1251;71478;-77
2024/04/19 01:35:38;;;;;;;3.30;2.20;;;;;;;10.34;100.00;99525.70;109666;1251;60509;-78
2024/04/19 01:38:06;;;;;;;3.40;2.20;;;;;;;10.34;100.00;99533.22;109689;1251;60019;-77
2024/04/19 01:40:33;;;;;;;2.80;2.30;;;;;;;10.34;100.00;99537.38;109626;1251;73103;-79
2024/04/19 01:43:00;;;;;;;2.50;2.20;;;;;;;10.34;100.00;99536.99;109696;1251;63596;-78
2024/04/19 01:45:27;;;;;;;2.70;2.50;;;;;;;10.34;100.00;99534.93;109600;1251;72445;-75
2024/04/19 01:47:55;;;;;;;2.70;2.50;;;;;;;10.31;100.00;99536.04;109601;1252;60525;-77
2024/04/19 01:50:23;;;;;;;2.60;2.40;;;;;;;10.29;100.00;99535.20;109511;1251;58840;-77
2024/04/19 01:52:50;;;;;;;3.10;2.90;;;;;;;10.26;100.00;99533.60;109601;1251;76724;-77
2024/04/19 01:55:18;;;;;;;3.90;2.70;;;;;;;10.23;100.00;99535.23;109638;1251;63672;-80
2024/04/19 01:57:47;;;;;;;3.10;2.80;;;;;;;10.21;100.00;99537.98;109601;1251;72626;-75
2024/04/19 02:00:15;;;;;;;5.40;3.00;;;;;;;10.19;100.00;99539.38;109589;1254;60383;-77
2024/04/19 02:02:43;;;;;;;2.70;2.50;;;;;;;10.15;100.00;99533.08;109650;1251;60060;-78
2024/04/19 02:05:11;;;;;;;2.80;2.50;;;;;;;10.11;100.00;99526.88;109600;1251;74666;-76
2024/04/19 02:07:39;;;;;;;5.00;2.90;;;;;;;10.09;100.00;99532.83;109615;1251;63502;-77
2024/04/19 02:10:07;;;;;;;3.70;3.00;;;;;;;10.06;100.00;99548.93;109610;1251;71379;-76
2024/04/19 02:12:35;;;;;;;2.30;2.10;;;;;;;10.02;100.00;99554.13;109576;1251;60638;-76
2024/04/19 02:15:02;;;;;;;4.00;2.90;;;;;;;9.99;100.00;99554.36;109664;1251;60083;-77
2024/04/19 02:17:29;;;;;;;2.70;2.50;;;;;;;9.96;100.00;99553.36;109647;1251;74650;-79
2024/04/19 02:19:57;;;;;;;3.80;2.80;;;;;;;9.94;100.00;99556.11;109645;1251;62447;-78
2024/04/19 02:22:24;;;;;;;2.90;2.60;;;;;;;9.93;100.00;99558.99;109646;1251;71343;-77
2024/04/19 02:24:52;;;;;;;4.20;3.00;;;;;;;9.91;100.00;99562.44;109625;1252;61763;-74
2024/04/19 02:32:52;;;;;;;3.40;3.00;;;;;;;9.87;100.00;99565.66;109667;1251;63939;-77
2024/04/19 02:35:19;;;;;;;3.20;3.00;;;;;;;9.89;100.00;99566.44;109619;1251;72705;-77
2024/04/19 02:37:47;;;;;;;3.70;3.40;;;;;;;9.90;100.00;99565.98;109608;1253;61675;-79
2024/04/19 02:40:15;;;;;;;4.00;3.20;;;;;;;9.91;100.00;99570.30;109654;1251;60251;-77
2024/04/19 02:42:42;;;;;;;3.10;2.80;;;;;;;9.91;100.00;99577.27;109624;1251;76863;-78
2024/04/19 02:45:09;;;;;;;4.20;2.70;;;;;;;9.90;100.00;99574.56;109629;1251;62414;-77
2024/04/19 02:47:37;;;;;;;3.10;2.70;;;;;;;9.89;100.00;99580.40;109600;1251;72486;-77
2024/04/19 02:50:04;;;;;;;3.50;3.00;;;;;;;9.86;100.00;99587.56;109677;1251;61769;-76
2024/04/19 02:52:31;;;;;;;3.30;2.50;;;;;;;9.85;100.00;99596.60;109633;1251;59057;-77
2024/04/19 02:55:00;;;;;;;3.90;3.20;;;;;;;9.83;100.00;99600.05;109672;1251;74712;-76
2024/04/19 02:57:32;;;;;;;5.10;3.40;;;;;;;9.81;100.00;99602.25;109685;1251;63575;-78
2024/04/19 02:59:59;;;;;;;3.40;3.10;;;;;;;9.81;100.00;99607.33;109613;1254;72527;-78
2024/04/19 03:02:43;;;;;;;3.30;3.00;;;;;;;9.83;100.00;99607.61;109609;1251;60718;-77
2024/04/19 03:07:22;;;;;;;1.80;1.70;;;;;;;9.84;100.00;99614.27;102693;1289;600950;-79
2024/04/19 03:09:49;;;;;;;2.60;1.70;;;;;;;9.81;100.00;99627.06;105436;1257;60199;-80
2024/04/19 03:12:16;;;;;;;1.40;1.30;;;;;;;9.81;100.00;99633.02;105644;1255;59953;-77
2024/04/19 03:14:47;;;;;;;2.10;1.60;;;;;;;9.81;100.00;99637.17;105870;1257;71789;-80
2024/04/19 03:17:14;;;;;;;1.60;1.50;;;;;;;9.82;100.00;99642.51;105738;1256;62736;-78
2024/04/19 03:19:42;;;;;;;1.00;0.90;;;;;;;9.81;100.00;99649.79;105478;1260;72706;-79
2024/04/19 03:22:09;;;;;;;1.20;1.10;;;;;;;9.80;100.00;99654.04;105614;1259;217853;-80
2024/04/19 03:24:40;;;;;;;0.80;0.80;;;;;;;9.82;100.00;99664.55;105682;1254;59722;-80
2024/04/19 03:27:07;;;;;;;0.70;0.70;;;;;;;9.82;100.00;99672.57;105677;1255;73799;-80
2024/04/19 03:29:57;;;;;;;0.80;0.60;;;;;;;9.83;100.00;99677.73;105805;1254;62952;-79
2024/04/19 03:32:25;;;;;;;1.00;0.80;;;;;;;9.84;100.00;99680.80;105743;1259;71688;-80
2024/04/19 03:34:53;;;;;;;0.90;0.70;;;;;;;9.83;100.00;99682.82;106344;1259;60634;-77
2024/04/19 03:37:21;;;;;;;1.00;0.90;;;;;;;9.81;100.00;99688.02;106027;1260;60354;-80
2024/04/19 03:39:48;;;;;;;0.70;0.70;;;;;;;9.80;100.00;99694.17;105752;1258;73622;-77
2024/04/19 03:42:20;;;;;;;0.70;0.70;;;;;;;9.79;100.00;99697.19;105784;1260;63053;-78
2024/04/19 03:47:34;;;;;;;1.30;1.20;;;;;;;9.76;100.00;99702.30;105853;1257;61715;-79
2024/04/19 03:50:02;;;;;;;0.80;0.80;;;;;;;9.74;100.00;99704.88;105763;1254;60539;-78
2024/04/19 03:52:30;;;;;;;2.10;1.20;;;;;;;9.73;100.00;99711.42;105690;1254;74038;-78
2024/04/19 03:54:58;;;;;;;0.70;0.50;;;;;;;9.70;100.00;99713.52;105850;1255;62518;-77
2024/04/19 03:57:25;;;;;;;1.80;0.50;;;;;;;9.70;100.00;99720.92;105606;1254;72357;-80
2024/04/19 03:59:53;;;;;;;2.30;0.60;;;;;;;9.68;100.00;99723.45;105770;1258;61763;-78
2024/04/19 04:02:20;;;;;;;1.20;0.80;;;;;;;9.67;100.00;99729.98;105904;1254;62932;-79
2024/04/19 04:04:54;;;;;;;1.00;0.90;;;;;;;9.66;100.00;99736.84;105768;1259;72453;-77
2024/04/19 04:07:21;;;;;;;1.30;0.90;;;;;;;9.64;100.00;99746.27;105695;1259;64430;-80
2024/04/19 04:09:49;;;;;;;1.90;0.70;;;;;;;9.62;100.00;99748.01;105665;1254;71825;-77
2024/04/19 04:12:16;;;;;;;3.20;0.60;;;;;;;9.59;100.00;99750.48;105756;1254;60417;-78
2024/04/19 04:14:44;;;;;;;1.00;0.60;;;;;;;9.56;100.00;99754.30;105725;1258;60356;-78
2024/04/19 04:17:11;;;;;;;0.50;0.50;;;;;;;9.55;100.00;99758.94;105813;1259;74147;-77
2024/04/19 04:19:39;;;;;;;2.70;0.90;;;;;;;9.53;100.00;99760.65;105972;1255;62302;-77
2024/04/19 04:22:07;;;;;;;1.00;0.90;;;;;;;9.49;100.00;99766.82;105602;1254;72759;-76
2024/04/19 04:24:34;;;;;;;2.40;0.50;;;;;;;9.46;100.00;99769.67;105708;1255;64277;-78
2024/04/19 04:27:02;;;;;;;0.50;0.50;;;;;;;9.44;100.00;99771.95;105709;1259;60338;-77
2024/04/19 04:29:31;;;;;;;0.40;0.40;;;;;;;9.44;100.00;99778.75;105662;1254;73963;-78
2024/04/19 04:31:58;;;;;;;0.70;0.50;;;;;;;9.44;100.00;99782.20;105456;1260;63608;-80
2024/04/19 04:34:27;;;;;;;0.40;0.40;;;;;;;9.46;100.00;99781.56;105723;1259;71280;-80
2024/04/19 04:36:54;;;;;;;1.70;0.60;;;;;;;9.48;100.00;99791.70;105716;1255;61730;-81
2024/04/19 04:39:21;;;;;;;0.80;0.70;;;;;;;9.50;100.00;99792.44;105769;1254;60695;-79
2024/04/19 04:41:49;;;;;;;0.90;0.60;;;;;;;9.52;100.00;99798.89;105722;1259;73909;-78
2024/04/19 04:44:16;;;;;;;1.10;0.70;;;;;;;9.53;100.00;99799.02;105742;1254;61862;-79
2024/04/19 04:46:43;;;;;;;1.00;0.70;;;;;;;9.51;100.00;99801.58;105802;1254;73028;-78
2024/04/19 04:49:13;;;;;;;3.90;1.00;;;;;;;9.48;100.00;99808.26;105844;1260;60475;-78
2024/04/19 04:51:41;;;;;;;2.30;0.50;;;;;;;9.46;100.00;99813.14;105757;1253;60366;-79
2024/04/19 04:54:09;;;;;;;1.30;0.80;;;;;;;9.44;100.00;99822.14;105724;1258;73824;-77
2024/04/19 04:56:37;;;;;;;1.20;0.70;;;;;;;9.43;100.00;99826.25;105607;1259;62586;-79
2024/04/19 04:59:04;;;;;;;4.60;0.70;;;;;;;9.42;100.00;99831.73;105990;1254;72926;-79
2024/04/19 05:01:31;;;;;;;0.70;0.60;;;;;;;9.42;100.00;99836.58;106440;1250;61916;-80
2024/04/19 05:03:59;;;;;;;2.50;0.50;;;;;;;9.47;100.00;99837.84;105957;1254;60354;-77
2024/04/19 05:06:26;;;;;;;2.00;0.70;;;;;;;9.51;100.00;99843.98;106116;1254;72381;-78
2024/04/19 05:08:56;;;;;;;0.60;0.40;;;;;;;9.55;100.00;99848.46;106034;1251;63123;-80
2024/04/19 05:11:24;;;;;;;0.80;0.60;;;;;;;9.61;100.00;99851.06;106023;1254;71390;-79
2024/04/19 05:13:51;;;;;;;1.70;0.50;;;;;;;9.65;100.00;99857.58;105982;1251;60348;-78
2024/04/19 05:16:19;;;;;;;1.00;0.80;;;;;;;9.68;100.00;99863.23;105993;1252;60787;-81
2024/04/19 05:18:51;;;;;;;0.80;0.70;;;;;;;9.68;100.00;99866.90;105948;1251;72490;-77
2024/04/19 05:21:19;;;;;;;0.50;0.50;;;;;;;9.68;100.00;99876.89;106130;1254;62675;-78
2024/04/19 05:23:47;;;;;;;1.40;0.60;;;;;;;9.67;100.00;99882.19;105952;1252;74350;-78
2024/04/19 05:26:15;;;;;;;6.80;0.70;;;;;;;9.66;100.00;99889.92;105930;1255;61561;-79
2024/04/19 05:28:42;;;;;;;1.20;1.10;;;;;;;9.66;100.00;99893.21;106026;1252;60539;-78
2024/04/19 05:31:09;;;;;;;0.80;0.80;;;;;;;9.66;100.00;99898.83;106003;1254;73122;-77
2024/04/19 05:33:37;;;;;;;0.80;0.80;;;;;;;9.68;100.00;99906.20;106210;1254;63546;-79
2024/04/19 05:36:04;;;;;;;0.80;0.80;;;;;;;9.72;100.00;99906.98;105964;1263;74800;-80
2024/04/19 05:38:32;;;;;;;1.00;1.00;;;;;;;9.78;100.00;99913.77;105950;1254;61688;-78
2024/04/19 05:40:59;;;;;;;6.60;1.60;;;;;;;9.79;100.00;99911.20;106280;1252;60540;-78
2024/04/19 05:43:27;;;;;;;3.10;2.80;;;;;;;9.79;100.00;99914.75;106451;1256;74174;-81
2024/04/19 05:45:54;;;;;;;3.50;1.80;;;;;;;9.78;100.00;99917.41;105935;1251;63272;-80
2024/04/19 05:48:22;;;;;;;2.50;1.90;;;;;;;9.79;100.00;99926.04;106028;1254;71607;-78
2024/04/19 05:50:51;;;;;;;4.40;2.50;;;;;;;9.79;100.00;99932.49;106087;1254;61617;-77
2024/04/19 05:53:19;;;;;;;1.90;1.80;;;;;;;9.77;100.00;99932.98;106040;1254;60425;-79
2024/04/19 05:55:46;;;;;;;3.50;2.40;;;;;;;9.74;100.00;99934.23;106052;1254;73030;-79
2024/04/19 05:58:15;;;;;;;2.50;1.80;;;;;;;9.74;100.00;99942.96;106183;1251;62285;-79
2024/04/19 06:00:42;;;;;;;2.00;1.90;;;;;;;9.76;100.00;99953.50;106161;1254;73089;-78
2024/04/19 06:03:10;;;;;;;1.80;1.70;;;;;;;9.79;100.00;99956.30;106028;1254;60462;-81
2024/04/19 06:05:37;;;;;;;1.70;1.60;;;;;;;9.82;100.00;99957.83;106046;1252;60511;-79
2024/04/19 06:08:07;;;;;;;1.90;1.80;;;;;;;9.90;100.00;99964.63;106199;1250;73802;-79
2024/04/19 06:10:35;;;;;;;1.60;1.50;;;;;;;10.07;100.00;99967.29;106117;1254;66060;-81
2024/04/19 06:13:02;;;;;;;1.60;1.50;;;;;;;10.57;100.00;99970.63;106029;1250;73627;-82
2024/04/19 06:15:30;;;;;;;1.40;1.30;;;;;;;11.38;100.00;99979.68;106055;1251;62135;-78
2024/04/19 06:17:57;;;;;;;7.40;1.70;;;;;;;12.31;100.00;99983.92;106264;1250;60427;-79
2024/04/19 06:20:25;;;;;;;1.80;1.10;;;;;;;13.16;100.00;99992.52;106039;1254;74247;-79
2024/04/19 06:22:53;;;;;;;1.10;1.00;;;;;;;13.65;100.00;99995.70;105981;1254;63844;-81
2024/04/19 06:25:33;;;;;;;0.90;0.60;;;;;;;13.87;100.00;99995.83;106254;1253;72453;-77
2024/04/19 06:28:02;;;;;;;0.70;0.60;;;;;;;13.80;100.00;99997.78;105914;1250;62246;-76
2024/04/19 06:30:29;;;;;;;1.70;0.70;;;;;;;13.67;100.00;100001.48;105999;1251;60542;-79
2024/04/19 06:32:57;;;;;;;0.50;0.30;;;;;;;13.43;100.00;100014.71;105986;1254;74102;-79
2024/04/19 06:35:25;;;;;;;0.80;0.70;;;;;;;13.16;100.00;100016.87;106049;1254;64291;-78
2024/04/19 06:37:52;;;;;;;0.40;0.40;;;;;;;12.94;100.00;100025.28;105991;1254;74826;-77
2024/04/19 06:40:20;;;;;;;0.40;0.40;;;;;;;12.80;100.00;100027.32;105958;1251;60583;-79
2024/04/19 06:42:50;;;;;;;0.40;0.40;;;;;;;12.71;100.00;100037.99;106000;1251;60539;-79
2024/04/19 06:45:18;;;;;;;0.60;0.60;;;;;;;12.66;100.00;100037.54;106128;1250;72973;-79
2024/04/19 06:47:46;;;;;;;0.90;0.70;;;;;;;12.57;100.00;100045.02;106088;1254;65587;-81
2024/04/19 06:50:14;;;;;;;1.50;0.50;;;;;;;12.41;100.00;100046.41;106018;1252;73176;-79
2024/04/19 06:52:41;;;;;;;0.70;0.50;;;;;;;12.34;100.00;100049.61;106064;1254;60532;-80
2024/04/19 06:55:10;;;;;;;1.20;0.60;;;;;;;12.24;100.00;100045.65;106091;1252;60447;-81
2024/04/19 06:57:37;;;;;;;0.40;0.30;;;;;;;12.15;100.00;100053.48;106043;1249;74269;-81
2024/04/19 07:00:05;;;;;;;0.50;0.50;;;;;;;12.08;100.00;100059.11;106196;1252;64048;-79
2024/04/19 07:02:53;;;;;;;0.50;0.50;;;;;;;12.10;100.00;100062.52;106181;1251;71784;-77
2024/04/19 07:05:20;;;;;;;1.30;0.40;;;;;;;12.21;100.00;100063.54;106306;1254;60403;-77
2024/04/19 07:07:51;;;;;;;0.70;0.30;;;;;;;12.35;100.00;100057.27;106282;1254;61650;-80
2024/04/19 07:10:22;;;;;;;2.20;0.40;;;;;;;12.52;100.00;100061.41;106099;1251;75001;-82
2024/04/19 07:12:50;;;;;;;0.50;0.50;;;;;;;12.73;100.00;100060.27;106102;1254;63009;-81
2024/04/19 07:15:18;;;;;;;1.80;0.50;;;;;;;12.94;100.00;100066.38;106088;1251;73734;-81
2024/04/19 07:17:49;;;;;;;0.30;0.30;;;;;;;13.16;100.00;100073.05;106103;1252;61242;-79
2024/04/19 07:20:16;;;;;;;1.70;0.80;;;;;;;13.31;100.00;100082.26;106085;1252;62077;-79
2024/04/19 07:22:44;;;;;;;0.50;0.40;;;;;;;13.41;100.00;100086.02;106031;1254;74800;-81
2024/04/19 07:25:11;;;;;;;0.80;0.40;;;;;;;13.47;100.00;100086.20;105931;1251;63609;-81
2024/04/19 07:27:39;;;;;;;0.60;0.30;;;;;;;13.50;100.00;100094.83;106023;1252;74321;-80
2024/04/19 07:30:15;;;;;;;2.10;0.40;;;;;;;13.48;100.00;100099.88;106314;1251;61348;-82
2024/04/19 07:32:44;;;;;;;1.10;0.40;;;;;;;13.44;100.00;100102.25;106365;1254;61132;-81
2024/04/19 07:35:12;;;;;;;0.50;0.30;;;;;;;13.37;100.00;100105.66;106272;1250;76622;-80
2024/04/19 07:37:40;;;;;;;0.40;0.30;;;;;;;13.27;100.00;100106.08;106133;1252;64735;-80
2024/04/19 07:52:12;;;;;;;1.40;0.40;;;;;;;13.98;100.00;100129.35;102455;1294;614881;-81
2024/04/19 07:54:39;;;;;;;0.50;0.50;;;;;;;14.39;99.99;100130.48;104963;1264;59823;-78
2024/04/19 07:57:06;;;;;;;1.00;0.50;;;;;;;14.69;93.68;100132.95;105019;1266;59940;-77
2024/04/19 07:59:33;;;;;;;0.80;0.30;;;;;;;15.00;90.05;100134.91;105024;1265;73351;-78
2024/04/19 08:02:00;;;;;;;0.30;0.30;;;;;;;15.32;89.86;100137.88;105056;1266;62853;-81
2024/04/19 08:04:27;;;;;;;1.30;0.40;;;;;;;15.53;84.82;100141.35;105636;1256;274818;-80
2024/04/19 08:06:54;;;;;;;0.50;0.20;;;;;;;15.60;80.95;100144.61;105876;1255;60398;-78
2024/04/19 08:09:21;;;;;;;0.80;0.50;;;;;;;15.59;79.36;100150.49;105877;1256;59628;-78
2024/04/19 08:11:49;;;;;;;2.00;0.60;;;;;;;15.82;76.30;100146.20;105995;1250;72340;-79
2024/04/19 08:14:22;;;;;;;;;;;;;;;16.01;72.90;100150.48;105963;1254;64724;-78
2024/04/19 08:16:49;;;;;;;0.30;0.30;;;;;;;16.17;68.62;100155.23;105926;1254;72817;-78
2024/04/19 08:19:16;;;;;;;0.30;0.30;;;;;;;16.35;68.94;100156.01;105973;1254;60520;-80
2024/04/19 08:21:42;;;;;;;0.80;0.40;;;;;;;16.45;66.76;100160.19;106094;1253;60356;-79
2024/04/19 08:24:09;;;;;;;3.30;0.40;;;;;;;16.52;66.83;100165.27;106138;1254;75100;-79
2024/04/19 08:26:37;;;;;;;1.30;0.50;;;;;;;16.61;68.87;100168.52;105987;1254;63109;-79
2024/04/19 08:29:03;;;;;;;1.30;0.70;;;;;;;16.61;67.61;100171.14;106180;1251;73001;-78
2024/04/19 08:31:41;;;;;;;0.40;0.40;;;;;;;16.39;66.91;100174.16;107006;1250;60636;-81
2024/04/19 08:34:07;;;;;;;4.20;0.80;;;;;;;16.10;65.43;100175.77;107191;1250;60436;-79
2024/04/19 08:36:35;;;;;;;3.20;0.50;;;;;;;15.89;70.17;100179.56;106323;1254;74991;-79
2024/04/19 08:39:02;;;;;;;1.60;0.30;;;;;;;15.89;72.76;100180.11;106249;1251;63706;-78
2024/04/19 08:41:30;;;;;;;0.40;0.30;;;;;;;15.96;72.47;100179.98;106059;1250;73371;-81
2024/04/19 08:43:58;;;;;;;0.30;0.20;;;;;;;15.99;72.56;100180.30;106119;1254;61149;-77
2024/04/19 08:46:32;;;;;;;0.40;0.30;;;;;;;15.95;69.82;100185.73;106032;1254;60467;-79
2024/04/19 08:49:03;;;;;;;0.80;0.30;;;;;;;16.14;69.26;100192.89;106060;1254;75103;-79
2024/04/19 08:51:30;;;;;;;1.80;0.50;;;;;;;16.33;67.03;100190.58;105928;1254;64244;-79
2024/04/19 08:54:17;;;;;;;0.20;0.20;;;;;;;16.50;64.87;100198.06;105968;1251;72792;-79
2024/04/19 08:56:44;;;;;;;1.70;0.20;;;;;;;16.54;64.19;100202.34;105852;1256;61436;-80
2024/04/19 08:59:11;;;;;;;0.70;0.40;;;;;;;16.58;62.97;100203.38;105872;1255;60434;-82
2024/04/19 09:01:37;;;;;;;0.20;0.20;;;;;;;16.58;60.09;100197.89;106065;1251;74029;-80
2024/04/19 09:04:04;;;;;;;0.90;0.20;;;;;;;16.67;60.15;100203.78;105968;1255;62956;-83
2024/04/19 09:06:31;;;;;;;0.60;0.30;;;;;;;16.78;62.36;100209.80;105846;1250;73822;-80
2024/04/19 09:08:58;;;;;;;0.40;0.30;;;;;;;16.91;63.30;100215.73;105835;1251;60453;-78
2024/04/19 09:11:25;;;;;;;1.60;0.40;;;;;;;17.10;62.57;100218.83;106103;1254;60842;-79
2024/04/19 09:13:52;;;;;;;2.00;0.30;;;;;;;17.30;61.24;100219.48;106273;1250;73095;-81
2024/04/19 09:16:20;;;;;;;0.70;0.50;;;;;;;17.61;59.17;100220.59;105982;1254;63600;-80
2024/04/19 09:18:49;;;;;;;1.60;0.30;;;;;;;17.85;56.20;100217.94;106279;1251;72330;-80
2024/04/19 09:21:17;;;;;;;0.30;0.30;;;;;;;17.94;56.73;100226.30;105951;1255;60434;-79
2024/04/19 09:23:46;;;;;;;1.30;0.40;;;;;;;18.02;57.30;100229.16;106097;1250;60541;-78
2024/04/19 09:26:16;;;;;;;0.50;0.30;;;;;;;18.18;57.55;100232.44;106065;1250;74925;-81
2024/04/19 09:28:42;;;;;;;2.50;0.30;;;;;;;18.42;55.55;100229.36;105878;1250;64943;-83
2024/04/19 09:31:09;;;;;;;0.30;0.30;;;;;;;18.74;54.45;100228.62;105898;1255;72872;-80
2024/04/19 09:33:37;;;;;;;0.70;0.20;;;;;;;19.03;54.13;100230.98;106026;1254;60460;-82
2024/04/19 09:36:04;;;;;;;0.50;0.20;;;;;;;19.19;51.15;100229.23;105944;1250;60616;-79
2024/04/19 09:38:31;;;;;;;0.30;0.20;;;;;;;19.21;51.44;100236.83;105951;1250;74947;-79
2024/04/19 09:41:01;;;;;;;1.20;0.10;;;;;;;19.18;52.55;100236.34;105820;1256;64768;-78
2024/04/19 09:43:33;;;;;;;1.20;0.40;;;;;;;19.23;52.20;100240.45;105932;1256;71474;-79
2024/04/19 09:46:00;;;;;;;1.00;0.40;;;;;;;19.43;52.98;100239.52;105997;1251;60491;-76
2024/04/19 09:48:30;;;;;;;0.20;0.20;;;;;;;19.69;51.65;100248.05;106001;1256;60437;-78
2024/04/19 09:50:58;;;;;;;0.20;0.20;;;;;;;20.00;49.97;100248.19;106049;1255;75084;-80
2024/04/19 09:53:31;;;;;;;0.80;0.30;;;;;;;20.35;49.90;100246.15;106181;1250;64145;-77
2024/04/19 09:56:22;;;;;;;0.70;0.20;;;;;;;20.79;45.51;100247.33;106010;1255;72672;-78
2024/04/19 09:58:49;;;;;;;1.50;0.20;;;;;;;21.11;42.87;100252.05;105974;1254;60606;-78
2024/04/19 10:01:16;;;;;;;0.30;0.20;;;;;;;21.26;42.07;100253.98;105893;1251;61652;-80
2024/04/19 10:03:43;;;;;;;1.00;0.30;;;;;;;21.25;41.95;100253.12;105989;1257;74115;-81
2024/04/19 10:06:10;;;;;;;1.70;0.60;;;;;;;21.38;41.30;100252.16;106357;1254;64145;-80
2024/04/19 10:08:37;;;;;;;0.40;0.10;;;;;;;21.57;41.75;100257.42;105905;1250;71961;-80
2024/04/19 10:11:06;;;;;;;0.50;0.20;;;;;;;21.86;40.66;100260.13;105907;1254;61098;-80
2024/04/19 10:13:32;;;;;;;0.90;0.40;;;;;;;22.11;40.99;100263.67;105787;1250;60610;-77
2024/04/19 10:15:59;;;;;;;2.70;0.30;;;;;;;22.24;41.35;100271.16;105922;1251;74938;-78
2024/04/19 10:18:27;;;;;;;0.50;0.30;;;;;;;22.41;39.70;100272.23;105935;1254;65039;-81
2024/04/19 10:20:54;;;;;;;1.80;1.00;;;;;;;22.58;38.08;100262.08;105983;1256;72939;-80
2024/04/19 10:23:21;;;;;;;0.60;0.30;;;;;;;22.69;38.05;100272.75;106066;1256;60523;-76
2024/04/19 10:25:48;;;;;;;1.10;0.30;;;;;;;22.77;38.22;100271.95;105950;1255;60349;-80
2024/04/19 10:28:15;;;;;;;2.20;0.50;;;;;;;22.91;36.81;100274.84;105717;1256;73010;-79
2024/04/19 10:30:44;;;;;;;0.40;0.30;;;;;;;22.84;36.07;100279.59;105874;1256;63152;-79
2024/04/19 10:33:13;;;;;;;2.90;0.50;;;;;;;22.70;35.99;100282.94;105998;1254;73153;-79
2024/04/19 10:35:41;;;;;;;0.40;0.30;;;;;;;22.71;36.33;100285.20;106110;1250;60521;-77
2024/04/19 10:38:08;;;;;;;5.50;0.60;;;;;;;22.91;35.88;100286.77;106050;1256;60439;-81
2024/04/19 10:40:35;;;;;;;3.20;0.30;;;;;;;22.87;35.64;100287.70;106009;1250;73198;-78
2024/04/19 10:43:03;;;;;;;2.00;0.50;;;;;;;22.64;35.75;100286.16;105968;1256;62052;-80
2024/04/19 10:45:31;;;;;;;2.10;0.30;;;;;;;22.27;36.99;100294.32;106005;1250;72838;-81
2024/04/19 10:47:59;;;;;;;1.20;0.40;;;;;;;21.97;38.18;100300.17;106091;1254;60517;-80
2024/04/19 10:50:30;;;;;;;1.90;0.20;;;;;;;21.74;37.83;100301.75;106577;1255;63099;-77
2024/04/19 10:52:57;;;;;;;0.50;0.30;;;;;;;21.55;37.19;100297.52;106159;1254;74942;-76
2024/04/19 10:55:27;;;;;;;2.70;0.40;;;;;;;21.48;38.20;100303.02;106102;1251;62284;-78
2024/04/19 10:57:57;;;;;;;2.10;0.80;;;;;;;21.56;39.43;100306.20;106020;1250;72702;-80
2024/04/19 11:00:26;;;;;;;1.00;0.40;;;;;;;21.81;38.69;100307.71;106039;1254;60534;-79
2024/04/19 11:02:53;;;;;;;0.40;0.20;;;;;;;22.00;37.27;100307.56;106006;1250;60470;-78
2024/04/19 11:05:39;;;;;;;0.50;0.20;;;;;;;22.17;36.39;100306.85;105936;1255;71939;-80
2024/04/19 11:08:06;;;;;;;4.50;0.60;;;;;;;22.21;36.16;100302.55;106078;1256;64328;-78
2024/04/19 11:10:34;;;;;;;6.90;1.30;;;;;;;22.11;35.65;100314.64;106432;1251;72739;-79
2024/04/19 11:13:01;;;;;;;2.30;0.70;;;;;;;21.76;36.60;100315.37;106076;1250;60457;-76
2024/04/19 11:15:27;;;;;;;4.10;0.60;;;;;;;21.54;36.32;100315.01;105861;1251;60600;-79
2024/04/19 11:17:55;;;;;;;0.80;0.50;;;;;;;21.43;35.89;100313.59;106338;1251;74732;-76
2024/04/19 11:20:22;;;;;;;1.60;0.50;;;;;;;21.30;36.25;100322.63;106072;1254;63963;-79
2024/04/19 11:22:49;;;;;;;0.40;0.40;;;;;;;21.07;36.62;100323.89;105937;1255;73305;-79
2024/04/19 11:25:16;;;;;;;1.70;0.30;;;;;;;20.80;36.28;100329.66;106045;1256;60520;-78
2024/04/19 11:27:43;;;;;;;0.40;0.30;;;;;;;20.65;37.02;100336.48;106080;1251;60367;-79
2024/04/19 11:30:10;;;;;;;0.60;0.50;;;;;;;20.74;37.33;100341.67;105974;1250;74986;-76
2024/04/19 11:32:39;;;;;;;2.60;0.60;;;;;;;20.74;37.90;100345.90;105968;1256;64015;-78
2024/04/19 11:35:10;;;;;;;1.00;0.50;;;;;;;20.48;38.12;100346.33;105985;1250;72715;-80
2024/04/19 11:37:37;;;;;;;1.10;0.60;;;;;;;20.11;38.70;100346.75;105991;1251;60424;-80
2024/04/19 11:40:19;;;;;;;1.30;0.50;;;;;;;19.89;40.45;100348.49;105990;1251;61374;-80
2024/04/19 11:42:53;;;;;;;1.00;0.40;;;;;;;19.79;40.75;100342.05;105971;1250;74746;-79
2024/04/19 11:45:21;;;;;;;;;;;;;;;19.74;40.27;100335.98;105990;1254;62974;-79
2024/04/19 11:47:50;;;;;;;1.70;0.90;;;;;;;19.73;39.18;100331.52;105916;1256;72679;-78